createdAt,value
2019-04-05T00:01:27.888Z,22.00
2019-04-05T00:03:57.650Z,21.90
2019-04-05T00:06:29.236Z,21.90
2019-04-05T00:12:16.907Z,21.80
2019-04-05T00:15:15.122Z,21.70
2019-04-05T00:17:40.467Z,21.60
2019-04-05T00:20:16.278Z,21.50
2019-04-05T00:22:42.772Z,21.50
2019-04-05T00:30:48.351Z,21.30
2019-04-05T00:33:17.407Z,21.30
2019-04-05T00:35:58.319Z,21.20
2019-04-05T00:38:33.465Z,21.20
2019-04-05T00:41:16.374Z,21.10
2019-04-05T00:43:50.935Z,21.10
2019-04-05T00:46:23.799Z,21.10
2019-04-05T00:49:16.821Z,21.10
2019-04-05T00:51:51.124Z,21.00
2019-04-05T00:54:45.800Z,21.00
2019-04-05T00:57:27.967Z,20.90
2019-04-05T01:00:06.909Z,20.90
2019-04-05T01:02:39.271Z,20.90
2019-04-05T01:05:17.978Z,20.80
2019-04-05T01:07:53.283Z,20.80
2019-04-05T01:10:40.510Z,20.80
2019-04-05T01:13:11.929Z,20.80
2019-04-05T01:15:44.889Z,20.80
2019-04-05T01:18:22.114Z,20.80
2019-04-05T01:21:04.484Z,20.80
2019-04-05T01:23:42.696Z,20.80
2019-04-05T01:26:21.973Z,20.70
2019-04-05T01:28:51.403Z,20.70
2019-04-05T01:31:30.410Z,20.70
2019-04-05T01:34:05.777Z,20.70
2019-04-05T01:40:01.314Z,20.70
2019-04-05T01:42:31.845Z,20.60
2019-04-05T01:50:20.044Z,20.60
2019-04-05T01:52:52.388Z,20.50
2019-04-05T01:55:23.040Z,20.50
2019-04-05T01:57:52.037Z,20.50
2019-04-05T02:00:20.954Z,20.50
2019-04-05T02:02:49.900Z,20.50
2019-04-05T02:05:22.821Z,20.50
2019-04-05T02:07:53.548Z,20.50
2019-04-05T02:10:26.319Z,20.40
2019-04-05T02:12:59.547Z,20.40
2019-04-05T02:15:29.761Z,20.40
2019-04-05T02:17:59.139Z,20.40
2019-04-05T02:20:36.514Z,20.40
2019-04-05T02:23:05.726Z,20.40
2019-04-05T02:25:34.805Z,20.40
2019-04-05T02:28:05.663Z,20.40
2019-04-05T02:30:35.104Z,20.40
2019-04-05T02:33:17.701Z,20.30
2019-04-05T02:35:46.908Z,20.30
2019-04-05T02:38:15.889Z,20.30
2019-04-05T02:40:45.661Z,20.30
2019-04-05T02:43:35.781Z,20.30
2019-04-05T02:46:22.230Z,20.30
2019-04-05T02:48:44.856Z,20.30
2019-04-05T02:51:16.720Z,20.20
2019-04-05T02:53:47.776Z,20.20
2019-04-05T02:56:33.369Z,20.30
2019-04-05T02:59:03.239Z,20.20
2019-04-05T03:01:38.460Z,20.20
2019-04-05T03:04:07.873Z,20.20
2019-04-05T03:06:38.372Z,20.20
2019-04-05T03:09:09.941Z,20.10
2019-04-05T03:11:40.714Z,20.10
2019-04-05T03:14:10.952Z,20.10
2019-04-05T03:16:53.744Z,20.10
2019-04-05T03:19:25.973Z,20.10
2019-04-05T03:22:00.182Z,20.10
2019-04-05T03:24:30.747Z,20.10
2019-04-05T03:27:03.359Z,20.00
2019-04-05T03:29:33.189Z,20.00
2019-04-05T03:32:09.627Z,20.00
2019-04-05T03:34:45.751Z,20.00
2019-04-05T03:37:16.193Z,20.00
2019-04-05T03:39:45.691Z,19.90
2019-04-05T03:42:15.249Z,19.90
2019-04-05T03:44:46.133Z,19.90
2019-04-05T03:47:15.155Z,19.90
2019-04-05T03:49:50.882Z,19.90
2019-04-05T03:52:28.496Z,19.90
2019-04-05T03:55:00.959Z,19.90
2019-04-05T03:57:42.548Z,19.90
2019-04-05T04:00:12.618Z,19.90
2019-04-05T04:02:42.342Z,19.80
2019-04-05T04:05:19.331Z,19.80
2019-04-05T04:07:50.139Z,19.90
2019-04-05T04:10:20.782Z,19.90
2019-04-05T04:15:39.942Z,19.80
2019-04-05T04:18:09.689Z,19.80
2019-04-05T04:20:43.583Z,19.80
2019-04-05T04:23:15.459Z,19.80
2019-04-05T04:28:42.094Z,19.80
2019-04-05T04:31:16.200Z,19.80
2019-04-05T04:33:45.144Z,19.80
2019-04-05T04:36:14.184Z,19.80
2019-04-05T04:38:43.317Z,19.80
2019-04-05T04:41:13.210Z,19.70
2019-04-05T04:43:43.839Z,19.70
2019-04-05T04:46:54.160Z,19.70
2019-04-05T04:49:11.545Z,19.70
2019-04-05T04:51:42.924Z,19.70
2019-04-05T04:54:12.535Z,19.70
2019-04-05T04:59:34.525Z,19.70
2019-04-05T05:02:03.691Z,19.70
2019-04-05T05:04:33.375Z,19.60
2019-04-05T05:07:03.226Z,19.60
2019-04-05T05:09:33.313Z,19.60
2019-04-05T05:12:03.305Z,19.60
2019-04-05T05:14:45.278Z,19.60
2019-04-05T05:17:18.210Z,19.60
2019-04-05T05:19:51.498Z,19.60
2019-04-05T05:22:20.380Z,19.60
2019-04-05T05:24:51.567Z,19.60
2019-04-05T05:27:21.475Z,19.60
2019-04-05T05:30:09.065Z,19.50
2019-04-05T05:32:41.963Z,19.50
2019-04-05T05:37:54.792Z,19.50
2019-04-05T05:40:35.066Z,19.50
2019-04-05T05:43:00.991Z,19.60
2019-04-05T05:48:17.920Z,19.50
2019-04-05T05:51:11.504Z,19.50
2019-04-05T05:56:34.900Z,19.60
2019-04-05T05:59:06.122Z,19.60
2019-04-05T06:01:37.084Z,19.60
2019-04-05T06:04:06.828Z,19.70
2019-04-05T06:06:36.375Z,19.60
2019-04-05T06:09:08.957Z,19.60
2019-04-05T06:11:45.229Z,19.70
2019-04-05T06:17:00.385Z,19.70
2019-04-05T06:19:31.522Z,19.70
2019-04-05T06:22:00.836Z,19.70
2019-04-05T06:24:32.130Z,19.70
2019-04-05T06:27:10.386Z,19.70
2019-04-05T06:29:39.765Z,19.70
2019-04-05T06:32:12.571Z,19.70
2019-04-05T06:35:00.675Z,19.70
2019-04-05T06:37:40.606Z,19.70
2019-04-05T06:40:15.143Z,19.80
2019-04-05T06:42:48.030Z,19.70
2019-04-05T06:48:00.036Z,19.70
2019-04-05T06:50:38.139Z,19.70
2019-04-05T06:53:29.116Z,19.70
2019-04-05T06:56:08.822Z,19.80
2019-04-05T06:58:38.032Z,19.80
2019-04-05T07:01:06.991Z,19.80
2019-04-05T07:03:50.656Z,19.80
2019-04-05T07:06:24.428Z,19.80
2019-04-05T07:08:54.233Z,19.80
2019-04-05T07:11:23.946Z,19.80
2019-04-05T07:13:54.692Z,19.80
2019-04-05T07:16:25.519Z,19.80
2019-04-05T07:18:54.676Z,19.80
2019-04-05T07:21:31.193Z,19.80
2019-04-05T07:24:00.211Z,19.70
2019-04-05T07:26:34.973Z,19.70
2019-04-05T07:29:03.968Z,19.70
2019-04-05T07:31:33.228Z,19.80
2019-04-05T07:34:03.883Z,19.70
2019-04-05T07:36:36.868Z,19.70
2019-04-05T07:39:09.316Z,19.80
2019-04-05T07:41:45.736Z,19.70
2019-04-05T07:44:37.224Z,19.70
2019-04-05T07:46:49.367Z,19.70
2019-04-05T07:49:18.945Z,19.70
2019-04-05T07:51:55.207Z,19.70
2019-04-05T07:54:32.048Z,19.70
2019-04-05T07:57:05.580Z,19.70
2019-04-05T07:59:36.383Z,19.70
2019-04-05T08:02:08.587Z,19.70
2019-04-05T08:10:48.858Z,19.70
2019-04-05T08:13:37.289Z,19.80
2019-04-05T08:16:09.334Z,19.70
2019-04-05T08:18:38.358Z,19.70
2019-04-05T08:21:07.330Z,19.70
2019-04-05T08:23:39.847Z,19.70
2019-04-05T08:26:10.521Z,19.70
2019-04-05T08:28:45.430Z,19.70
2019-04-05T08:31:15.230Z,19.70
2019-04-05T08:33:44.768Z,19.70
2019-04-05T08:36:17.613Z,19.70
2019-04-05T08:39:05.739Z,19.70
2019-04-05T08:41:38.998Z,19.70
2019-04-05T08:44:08.799Z,19.70
2019-04-05T08:46:43.990Z,19.70
2019-04-05T08:49:17.196Z,19.70
2019-04-05T08:51:47.644Z,19.60
2019-04-05T08:54:16.754Z,19.60
2019-04-05T08:56:51.970Z,19.70
2019-04-05T08:59:21.265Z,19.70
2019-04-05T09:02:25.207Z,19.70
2019-04-05T09:05:21.175Z,19.70
2019-04-05T09:08:03.861Z,19.70
2019-04-05T09:10:30.555Z,19.60
2019-04-05T09:13:22.177Z,19.60
2019-04-05T09:15:53.077Z,19.60
2019-04-05T09:18:22.426Z,19.60
2019-04-05T09:20:51.768Z,19.70
2019-04-05T09:23:35.798Z,19.60
2019-04-05T09:26:12.744Z,19.60
2019-04-05T09:28:41.597Z,19.60
2019-04-05T09:31:14.531Z,19.60
2019-04-05T09:33:45.689Z,19.60
2019-04-05T09:36:18.083Z,19.60
2019-04-05T09:38:47.992Z,19.60
2019-04-05T09:41:40.813Z,19.60
2019-04-05T09:44:35.953Z,19.60
2019-04-05T09:47:15.010Z,19.60
2019-04-05T09:50:24.590Z,19.60
2019-04-05T09:53:06.986Z,19.60
2019-04-05T09:55:59.394Z,19.60
2019-04-05T09:58:32.403Z,19.60
2019-04-05T10:04:10.620Z,19.70
2019-04-05T10:06:39.561Z,19.60
2019-04-05T10:09:12.030Z,19.70
2019-04-05T10:11:47.692Z,19.70
2019-04-05T10:14:20.717Z,19.70
2019-04-05T10:16:55.348Z,19.80
2019-04-05T10:19:33.356Z,19.70
2019-04-05T10:22:03.705Z,19.80
2019-04-05T10:24:33.248Z,19.80
2019-04-05T10:27:15.056Z,19.80
2019-04-05T10:29:58.252Z,19.80
2019-04-05T10:32:34.912Z,19.80
2019-04-05T10:35:14.416Z,19.80
2019-04-05T10:41:11.324Z,19.80
2019-04-05T10:43:46.371Z,19.80
2019-04-05T10:46:31.626Z,19.80
2019-04-05T10:49:00.714Z,19.80
2019-04-05T10:51:30.575Z,19.80
2019-04-05T10:56:58.996Z,19.80
2019-04-05T11:02:19.317Z,19.80
2019-04-05T11:04:49.693Z,19.90
2019-04-05T11:07:19.032Z,19.90
2019-04-05T11:09:53.325Z,19.90
2019-04-05T11:12:22.284Z,19.90
2019-04-05T11:15:02.549Z,19.90
2019-04-05T11:18:06.376Z,19.90
2019-04-05T11:20:37.106Z,20.00
2019-04-05T11:23:20.945Z,20.00
2019-04-05T11:25:49.302Z,20.00
2019-04-05T11:28:34.435Z,20.00
2019-04-05T11:31:03.530Z,20.00
2019-04-05T11:33:34.144Z,20.00
2019-04-05T11:36:15.704Z,20.00
2019-04-05T11:38:50.240Z,20.00
2019-04-05T11:41:17.479Z,20.00
2019-04-05T11:44:01.459Z,20.00
2019-04-05T11:46:37.787Z,20.00
2019-04-05T11:49:13.954Z,20.00
2019-04-05T11:57:18.913Z,20.00
2019-04-05T11:59:48.799Z,20.00
2019-04-05T12:02:41.833Z,20.00
2019-04-05T12:05:13.863Z,20.10
2019-04-05T12:07:48.914Z,20.10
2019-04-05T12:10:18.745Z,20.10
2019-04-05T12:12:47.254Z,20.10
2019-04-05T12:15:18.714Z,20.20
2019-04-05T12:20:52.354Z,20.20
2019-04-05T12:23:38.420Z,20.20
2019-04-05T12:26:06.636Z,20.20
2019-04-05T12:28:36.514Z,20.30
2019-04-05T12:31:18.730Z,20.30
2019-04-05T12:34:07.021Z,20.30
2019-04-05T12:36:47.976Z,20.30
2019-04-05T12:39:38.292Z,20.40
2019-04-05T12:42:11.952Z,20.40
2019-04-05T12:44:44.640Z,20.40
2019-04-05T12:47:18.072Z,20.40
2019-04-05T12:50:16.112Z,20.40
2019-04-05T12:56:00.633Z,20.40
2019-04-05T12:58:47.502Z,20.40
2019-04-05T13:01:13.143Z,20.40
2019-04-05T13:03:58.796Z,20.40
2019-04-05T13:06:28.866Z,20.40
2019-04-05T13:09:06.991Z,20.50
2019-04-05T13:11:44.575Z,20.50
2019-04-05T13:14:15.061Z,20.50
2019-04-05T13:16:52.275Z,20.60
2019-04-05T13:22:22.609Z,20.60
2019-04-05T13:31:06.594Z,20.70
2019-04-05T13:33:37.794Z,20.70
2019-04-05T13:36:10.931Z,20.70
2019-04-05T13:38:40.341Z,20.70
2019-04-05T13:41:19.167Z,20.80
2019-04-05T13:43:50.277Z,20.80
2019-04-05T13:46:25.823Z,20.80
2019-04-05T13:48:55.764Z,20.80
2019-04-05T13:51:28.217Z,20.80
2019-04-05T13:53:58.366Z,20.80
2019-04-05T13:56:28.396Z,20.80
2019-04-05T13:59:00.347Z,20.80
2019-04-05T14:04:30.069Z,20.80
2019-04-05T14:07:07.041Z,20.80
2019-04-05T14:09:44.317Z,20.80
2019-04-05T14:48:15.736Z,20.90
2019-04-05T14:50:44.519Z,20.90
2019-04-05T14:53:23.131Z,21.00
2019-04-05T14:56:00.500Z,21.00
2019-04-05T14:58:30.715Z,21.00
2019-04-05T15:01:17.662Z,21.10
2019-04-05T15:03:48.860Z,21.10
2019-04-05T15:06:23.051Z,21.10
2019-04-05T15:09:16.033Z,21.10
2019-04-05T15:11:45.781Z,21.10
2019-04-05T15:14:17.019Z,21.10
2019-04-05T15:16:46.832Z,21.10
2019-04-05T15:19:18.535Z,21.10
2019-04-05T15:21:47.922Z,21.10
2019-04-05T15:27:04.538Z,21.10
2019-04-05T15:29:33.864Z,21.10
2019-04-05T15:32:04.651Z,21.10
2019-04-05T15:34:41.188Z,21.10
2019-04-05T15:37:11.423Z,21.10
2019-04-05T15:39:40.440Z,21.10
2019-04-05T15:42:11.627Z,21.10
2019-04-05T15:47:55.234Z,21.10
2019-04-05T15:50:24.481Z,21.10
2019-04-05T15:52:53.597Z,21.00
2019-04-05T15:55:22.948Z,21.10
2019-04-05T15:57:53.851Z,21.10
2019-04-05T16:03:10.091Z,21.00
2019-04-05T16:05:41.918Z,21.10
2019-04-05T16:08:12.950Z,21.10
2019-04-05T16:10:45.713Z,21.10
2019-04-05T16:13:16.079Z,21.10
2019-04-05T16:15:54.406Z,21.10
2019-04-05T16:18:47.209Z,21.10
2019-04-05T16:21:23.831Z,21.10
2019-04-05T16:23:57.052Z,21.10
2019-04-05T16:26:48.984Z,21.10
2019-04-05T16:29:17.560Z,21.10
2019-04-05T16:31:48.086Z,21.10
2019-04-05T16:34:21.608Z,21.10
2019-04-05T16:37:02.416Z,21.10
2019-04-05T16:39:34.593Z,21.10
2019-04-05T16:42:06.536Z,21.10
2019-04-05T16:44:39.296Z,21.10
2019-04-05T16:47:20.276Z,21.10
2019-04-05T16:52:45.173Z,21.10
2019-04-05T16:55:13.616Z,21.10
2019-04-05T16:57:42.844Z,21.10
2019-04-05T17:00:15.747Z,21.10
2019-04-05T17:02:52.500Z,21.10
2019-04-05T17:05:21.973Z,21.10
2019-04-05T17:08:12.065Z,21.00
2019-04-05T17:10:31.084Z,21.10
2019-04-05T17:13:03.705Z,21.10
2019-04-05T17:15:40.457Z,21.10
2019-04-05T17:20:48.337Z,21.10
2019-04-05T17:23:41.799Z,21.00
2019-04-05T17:26:13.484Z,21.00
2019-04-05T17:29:03.457Z,21.00
2019-04-05T17:31:33.184Z,21.00
2019-04-05T17:34:14.009Z,21.00
2019-04-05T17:36:51.496Z,21.00
2019-04-05T17:39:28.972Z,21.00
2019-04-05T17:42:20.856Z,21.00
2019-04-05T17:44:54.283Z,21.00
2019-04-05T17:50:04.589Z,21.00
2019-04-05T17:55:29.938Z,21.00
2019-04-05T17:57:58.967Z,20.90
2019-04-05T18:00:29.017Z,20.90
2019-04-05T18:03:01.352Z,20.90
2019-04-05T18:10:46.930Z,20.90
2019-04-05T18:13:21.877Z,20.80
2019-04-05T18:19:24.991Z,20.80
2019-04-05T18:21:51.811Z,20.80
2019-04-05T18:24:22.653Z,20.80
2019-04-05T18:26:54.984Z,20.80
2019-04-05T18:29:46.759Z,20.80
2019-04-05T18:35:26.707Z,20.80
2019-04-05T18:40:39.919Z,20.80
2019-04-05T18:43:04.051Z,20.80
2019-04-05T18:48:23.498Z,20.80
2019-04-05T18:50:52.667Z,20.80
2019-04-05T18:53:37.438Z,20.80
2019-04-05T18:56:15.722Z,20.80
2019-04-05T18:58:44.808Z,20.80
2019-04-05T19:01:14.368Z,20.80
2019-04-05T19:03:44.961Z,20.80
2019-04-05T19:06:14.390Z,20.70
2019-04-05T19:08:44.752Z,20.70
2019-04-05T19:11:21.493Z,20.70
2019-04-05T19:14:01.019Z,20.70
2019-04-05T19:16:24.627Z,20.70
2019-04-05T19:18:53.679Z,20.70
2019-04-05T19:21:23.011Z,20.70
2019-04-05T19:23:55.183Z,20.70
2019-04-05T19:26:29.843Z,20.70
2019-04-05T19:29:01.952Z,20.70
2019-04-05T19:55:48.881Z,20.60
2019-04-05T19:58:18.221Z,20.50
2019-04-05T20:01:02.683Z,20.50
2019-04-05T20:03:37.334Z,20.60
2019-04-05T20:06:08.524Z,20.50
2019-04-05T20:11:34.524Z,20.50
2019-04-05T20:17:26.692Z,20.50
2019-04-05T20:19:55.646Z,20.50
2019-04-05T20:22:32.868Z,20.50
2019-04-05T20:28:27.260Z,20.50
2019-04-05T20:30:59.841Z,20.50
2019-04-05T20:33:29.215Z,20.40
2019-04-05T20:36:08.069Z,20.40
2019-04-05T20:38:39.543Z,20.50
2019-04-05T20:41:16.048Z,20.40
2019-04-05T20:43:46.836Z,20.40
2019-04-05T20:46:18.986Z,20.40
2019-04-05T20:48:51.836Z,20.40
2019-04-05T20:51:33.160Z,20.50
2019-04-05T20:54:05.788Z,20.50
2019-04-05T20:56:51.389Z,20.40
2019-04-05T21:02:36.919Z,20.40
2019-04-05T21:07:45.614Z,20.50
2019-04-05T21:10:14.670Z,20.40
2019-04-05T21:12:45.010Z,20.50
2019-04-05T21:18:04.874Z,20.40
2019-04-05T21:20:33.755Z,20.40
2019-04-05T21:23:02.778Z,20.40
2019-04-05T21:25:31.973Z,20.40
2019-04-05T21:28:02.187Z,20.40
2019-04-05T21:30:31.619Z,20.40
2019-04-05T21:33:04.660Z,20.40
2019-04-05T21:35:47.721Z,20.40
2019-04-05T21:38:18.294Z,20.40
2019-04-05T21:40:52.239Z,20.40
2019-04-05T21:43:21.476Z,20.40
2019-04-05T21:45:59.031Z,20.40
2019-04-05T21:48:37.966Z,20.40
2019-04-05T21:53:58.799Z,20.30
2019-04-05T21:56:29.437Z,20.30
2019-04-05T21:59:01.740Z,20.30
2019-04-05T22:04:44.157Z,20.30
2019-04-05T22:07:15.706Z,20.30
2019-04-05T22:09:45.377Z,20.50
2019-04-05T22:15:03.138Z,20.30
2019-04-05T22:17:33.765Z,20.60
2019-04-05T22:28:49.230Z,21.00
2019-04-05T22:31:28.590Z,21.20
2019-04-05T22:34:01.200Z,21.40
2019-04-05T22:36:36.861Z,21.60
2019-04-05T22:39:12.628Z,21.80
2019-04-05T22:41:42.196Z,22.00
2019-04-05T22:44:11.854Z,22.10
2019-04-05T22:46:42.145Z,22.20
2019-04-05T22:49:11.237Z,22.20
2019-04-05T22:51:44.292Z,22.20
2019-04-05T22:54:14.904Z,22.20
2019-04-05T22:59:12.679Z,22.10
2019-04-05T23:02:05.557Z,22.10
2019-04-05T23:04:35.033Z,22.10
2019-04-05T23:07:05.702Z,22.00
2019-04-05T23:09:34.168Z,21.90
2019-04-05T23:12:22.215Z,21.90
2019-04-05T23:14:51.211Z,21.80
2019-04-05T23:17:25.077Z,21.80
2019-04-05T23:19:54.241Z,21.70
2019-04-05T23:22:42.938Z,21.70
2019-04-05T23:25:22.581Z,21.60
2019-04-05T23:27:54.032Z,21.50
2019-04-05T23:30:24.547Z,21.50
2019-04-05T23:33:18.519Z,21.50
2019-04-05T23:35:30.400Z,21.40
2019-04-05T23:38:00.937Z,21.40
2019-04-05T23:40:30.419Z,21.30
2019-04-05T23:43:02.398Z,21.30
2019-04-05T23:45:55.484Z,21.30
2019-04-05T23:48:36.968Z,21.20
2019-04-05T23:51:08.245Z,21.20
2019-04-05T23:53:37.396Z,21.10
2019-04-05T23:56:06.529Z,21.10
2019-04-05T23:58:35.523Z,21.10
